Latest Weather Observations for Batchelor

IDD60901

Issued at 7:35 pm CST Thursday 21 August 2014 (issued every 10 minutes, with the page automatically refreshed every 10 minutes)

About weather observations | Map of Darwin area stations | Latest observations for Darwin area | Other Formats
Station Details ID: 014272 Name: BATCHELOR AIRPORT Lat: -13.05 Lon: 131.03 Height: 104.0 m
Data from the previous 72 hours. | See also: Recent months at Batchelor
Date/Time
CST
Tmp

°C
App
Tmp
°C
Dew
Point
°C
Rel
Hum
%
Delta-T

°C
Wind Press
QNH
hPa
Press
MSL
hPa
Rain
since
9 am
mm
Dir
 
Spd
km/h
Gust
km/h
Spd
kts
Gust
kts
21/07:30pm 24.0 20.6 -1.8 18 11.4 SSE 6 7 3 4 1014.1 1013.5 0.0
21/07:00pm 25.9 22.5 -1.8 16 12.5 S 6 7 3 4 1013.7 - 0.0
21/06:30pm 27.8 24.1 -3.1 13 13.8 S 7 13 4 7 1013.2 1012.6 0.0
21/06:00pm 29.3 25.4 -4.2 11 14.9 S 7 13 4 7 1012.8 1012.2 0.0
21/05:30pm 30.4 26.1 -4.6 10 15.6 S 9 22 5 12 1012.3 1011.8 0.0
21/05:00pm 30.7 26.1 -4.4 10 15.7 SE 11 17 6 9 1011.9 - 0.0
21/04:30pm 30.9 25.8 -5.6 9 16.0 SSE 13 22 7 12 1011.8 1011.3 0.0
21/04:00pm 31.5 25.3 -5.2 9 16.3 ESE 19 26 10 14 1011.8 - 0.0
21/03:30pm 31.3 25.8 -5.3 9 16.2 SSE 15 26 8 14 1012.1 1011.6 0.0
21/03:00pm 31.5 26.9 -3.8 10 16.0 S 11 22 6 12 1012.4 1011.9 0.0
21/02:30pm 30.7 24.9 -4.4 10 15.7 S 17 20 9 11 1013.1 1012.5 0.0
21/02:00pm 30.6 24.3 -4.4 10 15.6 ESE 20 30 11 16 1013.6 - 0.0
21/01:30pm 30.5 24.9 -3.3 11 15.4 SE 17 26 9 14 1014.0 1013.4 0.0
21/01:00pm 29.7 23.4 -3.9 11 15.0 SE 20 30 11 16 1014.6 - 0.0
21/12:30pm 29.3 22.7 -3.0 12 14.6 SE 22 33 12 18 1015.0 1014.4 0.0
21/12:00pm 28.3 21.8 -2.7 13 14.0 ESE 22 32 12 17 1015.4 1014.8 0.0
21/11:30am 28.1 22.4 -0.9 15 13.5 ESE 19 30 10 16 1015.7 1015.1 0.0
21/11:00am 26.8 19.7 -1.1 16 12.8 ESE 26 33 14 18 1016.1 - 0.0
21/10:30am 26.4 19.4 -0.6 17 12.5 E 26 39 14 21 1016.4 1015.9 0.0
21/10:00am 24.6 16.6 0.2 20 11.3 ESE 32 41 17 22 1016.6 - 0.0
21/09:30am 24.1 17.0 1.1 22 10.8 ESE 28 41 15 22 1016.6 1016.1 0.0
21/09:15am 23.1 15.9 0.9 23 10.3 ESE 28 44 15 24 1016.5 - 0.0
21/09:00am 23.1 17.5 1.5 24 10.1 ESE 20 26 11 14 1016.5 1016.0 0.0
21/08:30am 21.9 16.9 1.6 26 9.4 ESE 17 24 9 13 1016.2 1015.7 0.0
21/08:00am 20.6 16.0 1.5 28 8.8 SE 15 19 8 10 1015.9 - 0.0
21/07:30am 19.2 15.3 1.2 30 8.1 SE 11 17 6 9 1015.5 1014.9 0.0
21/07:00am 18.6 14.7 1.2 31 7.8 SE 11 19 6 10 1015.1 - 0.0
21/06:30am 18.8 14.7 2.2 33 7.6 ESE 13 19 7 10 1014.6 1014.0 0.0
21/06:00am 19.1 15.5 2.9 34 7.6 SE 11 17 6 9 1014.4 1013.8 0.0
21/05:30am 18.8 15.5 6.3 44 6.2 SE 13 17 7 9 1014.1 1013.5 0.0
21/05:00am 15.9 14.7 10.4 70 2.9 ESE 7 7 4 4 1013.8 - 0.0
21/04:30am 15.4 16.5 13.6 89 1.0 CALM 0 0 0 0 1013.6 1013.0 0.0
21/04:00am 16.4 17.5 14.6 89 1.0 S 2 4 1 2 1013.5 - 0.0
21/03:30am 16.5 17.9 14.5 88 1.2 CALM 0 0 0 0 1013.6 1013.0 0.0
21/03:00am 17.7 18.7 16.4 92 0.8 S 6 9 3 5 1013.8 1013.2 0.0
21/02:30am 16.2 17.3 14.7 91 0.9 W 2 2 1 1 1014.0 1013.4 0.0
21/02:00am 16.2 17.7 14.6 90 0.9 CALM 0 0 0 0 1014.2 - 0.0
21/01:30am 16.9 18.7 15.6 92 0.8 CALM 0 0 0 0 1014.3 1013.7 0.0
21/01:00am 17.1 18.9 15.6 91 0.9 CALM 0 0 0 0 1014.5 - 0.0
21/12:30am 17.1 18.8 15.3 89 1.1 CALM 0 0 0 0 1014.8 1014.2 0.0
21/12:00am 17.6 19.3 15.2 86 1.4 CALM 0 2 0 1 1015.1 1014.5 0.0
 
Date/Time
CST
Tmp

°C
App
Tmp
°C
Dew
Point
°C
Rel
Hum
%
Delta-T

°C
Wind Press
QNH
hPa
Press
MSL
hPa
Rain
since
9 am
mm
Dir
 
Spd
km/h
Gust
km/h
Spd
kts
Gust
kts
20/11:30pm 17.9 19.2 14.2 79 2.1 CALM 0 0 0 0 1015.2 1014.6 0.0
20/11:00pm 17.9 18.3 12.6 71 3.0 W 2 4 1 2 1015.4 - 0.0
20/10:30pm 19.8 20.2 13.7 68 3.5 W 4 4 2 2 1015.4 1014.8 0.0
20/10:00pm 21.5 22.8 15.1 67 3.8 WNW 2 6 1 3 1015.4 - 0.0
20/09:30pm 21.7 22.2 13.9 61 4.5 NW 4 6 2 3 1015.3 1014.7 0.0
20/09:00pm 22.6 22.5 13.4 56 5.3 NW 6 7 3 4 1015.1 1014.5 0.0
20/08:30pm 23.7 23.8 13.8 53 5.8 NW 6 17 3 9 1014.7 1014.1 0.0
20/08:00pm 21.1 19.9 8.0 43 6.8 S 4 11 2 6 1014.1 - 0.0
20/07:30pm 23.0 22.2 6.7 35 8.4 CALM 0 0 0 0 1013.5 1012.9 0.0
20/07:00pm 24.5 23.7 6.7 32 9.3 CALM 0 0 0 0 1013.2 - 0.0
20/06:30pm 27.5 26.0 5.1 24 11.6 ESE 2 6 1 3 1012.8 1012.2 0.0
20/06:00pm 30.2 27.4 3.3 18 13.7 E 7 9 4 5 1012.5 1012.0 0.0
20/05:30pm 30.8 28.4 4.5 19 13.7 E 6 9 3 5 1012.3 1011.8 0.0
20/05:00pm 31.2 29.3 4.9 19 13.8 SE 4 13 2 7 1012.3 - 0.0
20/04:30pm 31.0 28.1 4.7 19 13.8 ESE 9 13 5 7 1012.2 1011.7 0.0
20/04:00pm 31.1 28.8 4.8 19 13.8 ESE 6 11 3 6 1012.3 - 0.0
20/03:30pm 31.1 28.9 6.2 21 13.4 SE 7 13 4 7 1012.6 1012.1 0.0
20/03:00pm 30.5 28.0 5.0 20 13.4 S 7 13 4 7 1013.0 1012.4 0.0
20/02:30pm 30.8 28.9 6.6 22 13.0 E 6 11 3 6 1013.1 1012.5 0.0
20/02:00pm 30.6 28.1 6.5 22 13.0 ESE 9 17 5 9 1013.7 - 0.0
20/01:30pm 29.9 27.0 6.5 23 12.5 E 11 24 6 13 1014.2 1013.6 0.0
20/01:00pm 29.3 26.2 7.2 25 11.9 ESE 13 24 7 13 1014.8 - 0.0
20/12:30pm 29.2 26.0 8.3 27 11.5 E 15 24 8 13 1015.3 1014.7 0.0
20/12:00pm 28.1 25.3 8.4 29 10.8 E 13 26 7 14 1015.9 1015.3 0.0
20/11:30am 27.2 25.3 10.4 35 9.5 NE 11 20 6 11 1016.3 1015.8 0.0
20/11:00am 26.1 24.5 11.5 40 8.3 ENE 11 19 6 10 1016.8 - 0.0
20/10:30am 25.6 23.1 9.8 37 8.7 ENE 13 20 7 11 1016.9 1016.4 0.0
20/10:00am 24.5 21.0 7.2 33 9.1 E 15 24 8 13 1017.2 - 0.0
20/09:30am 22.8 17.7 2.8 27 9.6 ESE 19 26 10 14 1017.0 1016.5 0.0
20/09:00am 21.5 16.0 0.7 25 9.5 ESE 19 26 10 14 1016.9 1016.4 -
20/08:30am 20.9 16.2 0.7 26 9.1 ESE 15 24 8 13 1016.7 1016.2 -
20/08:00am 20.0 15.3 1.0 28 8.6 ESE 15 19 8 10 1016.4 - -
20/07:30am 19.2 14.9 0.8 29 8.2 SE 13 17 7 9 1016.0 1015.5 -
20/07:00am 18.8 14.9 0.9 30 8.0 SE 11 17 6 9 1015.8 - -
20/06:30am 17.9 14.6 2.2 35 7.2 SE 9 15 5 8 1015.5 1014.9 -
20/06:00am 14.3 12.3 6.4 59 3.8 SE 6 9 3 5 1015.3 1014.7 -
20/05:30am 14.4 13.2 7.9 65 3.2 SSE 4 7 2 4 1014.9 1014.3 -
20/05:00am 13.7 13.0 9.9 78 2.0 W 4 4 2 2 1014.7 - -
20/04:30am 13.1 12.4 10.1 82 1.6 W 4 4 2 2 1014.5 1013.9 -
20/04:00am 12.9 12.2 9.9 82 1.5 W 4 4 2 2 1014.5 - -
20/03:30am 13.7 13.9 10.5 81 1.7 CALM 0 0 0 0 1014.6 1014.0 0.0
20/03:00am 13.3 13.6 11.0 86 1.2 CALM 0 0 0 0 1014.5 1013.9 0.0
20/02:30am 12.9 12.3 10.3 84 1.4 W 4 6 2 3 1015.0 1014.4 0.0
20/02:00am 13.5 13.8 11.0 85 1.3 CALM 0 0 0 0 1015.0 - 0.0
20/01:30am 13.8 13.5 10.2 79 1.9 W 2 4 1 2 1015.1 1014.5 0.0
20/01:00am 14.6 14.9 11.0 79 1.9 CALM 0 0 0 0 1015.4 - 0.0
20/12:30am 15.1 15.4 10.9 76 2.2 CALM 0 0 0 0 1015.5 1014.9 0.0
20/12:00am 16.1 16.5 11.3 73 2.6 CALM 0 0 0 0 1015.5 1014.9 0.0
 
Date/Time
CST
Tmp

°C
App
Tmp
°C
Dew
Point
°C
Rel
Hum
%
Delta-T

°C
Wind Press
QNH
hPa
Press
MSL
hPa
Rain
since
9 am
mm
Dir
 
Spd
km/h
Gust
km/h
Spd
kts
Gust
kts
19/11:30pm 17.8 18.4 11.8 68 3.3 CALM 0 0 0 0 1015.4 1014.8 0.0
19/11:00pm 18.5 18.9 11.3 63 3.9 CALM 0 0 0 0 1015.5 - 0.0
19/10:30pm 20.6 20.4 11.8 57 4.9 W 4 6 2 3 1015.5 1014.9 0.0
19/10:00pm 21.4 20.6 11.7 54 5.4 W 7 9 4 5 1015.4 - 0.0
19/09:30pm 21.9 21.1 11.0 50 6.0 W 6 7 3 4 1015.1 1014.5 0.0
19/09:00pm 22.5 21.7 10.9 48 6.4 W 6 7 3 4 1015.0 1014.4 0.0
19/08:30pm 23.4 22.9 10.8 45 7.0 W 4 7 2 4 1014.6 1014.0 0.0
19/08:00pm 24.4 23.4 11.0 43 7.5 W 7 11 4 6 1014.3 - 0.0
19/07:30pm 21.5 19.4 4.1 32 8.5 SSW 4 11 2 6 1013.7 1013.1 0.0
19/07:00pm 24.3 22.8 3.0 25 10.4 CALM 0 0 0 0 1013.2 - 0.0
19/06:30pm 26.9 24.7 1.3 19 12.3 S 2 4 1 2 1012.9 1012.3 0.0
19/06:00pm 30.8 28.0 -3.0 11 15.5 SSW 2 4 1 2 1012.6 1012.1 0.0
19/05:30pm 31.1 28.2 -4.1 10 15.9 W 2 6 1 3 1012.6 1012.1 0.0
19/05:00pm 31.2 28.3 -4.0 10 15.9 S 2 4 1 2 1012.5 - 0.0
19/04:30pm 31.7 28.3 -2.3 11 15.9 SW 6 11 3 6 1012.6 1012.1 0.0
19/04:00pm 30.9 27.8 -3.0 11 15.5 NNE 4 9 2 5 1012.6 - 0.0
19/03:30pm 30.9 27.5 -1.8 12 15.3 E 6 9 3 5 1012.9 1012.3 0.0
19/03:00pm 30.0 26.5 -2.5 12 14.9 ENE 6 11 3 6 1013.3 1012.7 0.0
19/02:30pm 30.3 26.4 -1.2 13 14.8 ESE 9 19 5 10 1013.8 1013.2 0.0
19/02:00pm 29.9 26.5 -0.5 14 14.4 ESE 7 17 4 9 1014.5 - 0.0
19/01:30pm 29.0 25.3 -0.2 15 13.8 SE 9 15 5 8 1014.9 1014.3 0.0
19/01:00pm 28.1 24.0 -0.1 16 13.3 ESE 11 19 6 10 1015.4 - 0.0
19/12:30pm 28.2 23.9 0.9 17 13.1 SE 13 20 7 11 1016.0 1015.5 0.0
19/12:00pm 27.5 22.7 2.6 20 12.3 ESE 17 22 9 12 1016.6 1016.1 0.0
19/11:30am 26.9 22.0 5.2 25 11.2 ESE 20 28 11 15 1017.1 1016.6 0.0
19/11:00am 26.0 22.2 7.6 31 9.8 ESE 17 32 9 17 1017.5 - 0.0
19/10:30am 24.8 21.9 8.3 35 8.8 E 13 24 7 13 1018.1 1017.6 0.0
19/10:00am 23.8 20.6 8.6 38 8.2 E 15 22 8 12 1018.2 - 0.0
19/09:30am 22.4 18.7 7.8 39 7.6 SE 17 24 9 13 1018.2 1017.7 0.0
19/09:00am 20.8 16.5 3.5 32 8.3 SE 15 22 8 12 1018.1 1017.6 -
19/08:30am 20.0 15.7 1.0 28 8.6 SE 13 19 7 10 1018.0 1017.5 -
19/08:00am 17.8 15.0 2.9 37 6.9 SE 7 9 4 5 1017.7 - -
19/07:30am 14.8 12.2 3.3 46 5.2 SSE 6 7 3 4 1017.6 1017.1 -
19/07:00am 13.9 11.2 3.7 50 4.6 SSE 7 9 4 5 1017.1 - -
19/06:30am 13.5 11.1 4.4 54 4.2 SSE 6 7 3 4 1016.8 1016.3 -
19/06:00am 12.8 10.9 5.0 59 3.6 S 4 6 2 3 1016.5 1016.0 -
19/05:30am 11.6 9.6 6.9 73 2.2 SSE 7 9 4 5 1016.2 1015.7 -
19/05:00am 11.6 11.2 8.3 80 1.6 CALM 0 0 0 0 1016.0 - -
19/04:30am 13.0 12.9 9.4 79 1.8 CALM 0 0 0 0 1015.9 1015.3 -
19/04:00am 13.0 12.6 9.6 80 1.7 W 2 4 1 2 1015.8 - -
19/03:30am 13.7 13.5 10.3 80 1.8 W 2 2 1 1 1015.8 1015.2 -
19/03:00am 12.6 12.5 9.4 81 1.6 CALM 0 - 0 - - 1015.2 -
19/02:30am 12.6 12.0 8.9 78 1.9 W 2 2 1 1 1015.9 1015.3 0.0
19/02:00am 13.4 13.2 9.1 75 2.2 CALM 0 0 0 0 1016.0 - 0.0
19/01:30am 14.5 14.5 9.7 73 2.5 CALM 0 0 0 0 1016.1 1015.6 0.0
19/01:00am 14.8 14.7 9.6 71 2.7 CALM 0 0 0 0 1016.4 - 0.0
19/12:30am 14.9 14.8 9.3 69 2.9 CALM 0 0 0 0 1016.5 1016.0 0.0
19/12:00am 15.3 15.2 9.4 68 3.1 CALM 0 0 0 0 1016.6 1016.1 0.0
 
Date/Time
CST
Tmp

°C
App
Tmp
°C
Dew
Point
°C
Rel
Hum
%
Delta-T

°C
Wind Press
QNH
hPa
Press
MSL
hPa
Rain
since
9 am
mm
Dir
 
Spd
km/h
Gust
km/h
Spd
kts
Gust
kts
18/11:30pm 15.1 14.2 7.9 62 3.6 W 2 2 1 1 1016.6 1016.1 0.0
18/11:00pm 17.1 16.5 9.0 59 4.2 W 2 4 1 2 1016.6 - 0.0
18/10:30pm 17.8 16.9 7.8 52 5.1 W 2 4 1 2 1016.5 1016.0 0.0
18/10:00pm 20.4 19.0 8.7 47 6.2 W 6 7 3 4 1016.4 - 0.0
18/09:30pm 21.2 19.8 8.8 45 6.6 W 6 7 3 4 1016.3 1015.8 0.0
18/09:00pm 22.0 20.2 7.8 40 7.4 W 7 13 4 7 1016.1 1015.6 0.0
18/08:30pm 22.9 20.1 7.1 36 8.2 WNW 11 15 6 8 1015.8 1015.2 0.0
18/08:00pm 20.0 18.4 2.4 31 8.2 CALM 0 0 0 0 1015.3 - 0.0

Latest Capital City Observations: Canberra | Sydney | Melbourne | Brisbane | Adelaide | Perth | Hobart | Darwin

Other Formats:

Comma delimited format used in spreadsheet applications
http://www.bom.gov.au/fwo/IDD60901/IDD60901.94125.axf

JavaScript Object Notation format (JSON) in row-major order
http://www.bom.gov.au/fwo/IDD60901/IDD60901.94125.json